Walker, Iowa
Current Conditions -  °F | °C
As of 10:55 PM on Monday 22 Dec 2014 (Local Time) from KVTI Reporting Station
Moderate Rain Moderate Rain  
Wind Chill: 31°   Ceiling: 400
Heat Index: 38°   Visibility: 3mi
Dew Point: 37°   Wind: 9mph
Humidity: 96%   Direction: 70°ENE
Pressure: 29.48"   Gusts: NA
Location:  42.29°N, 91.78°W
Report Text: KVTI 230455Z AUTO 07008KT 3SM RA OVC004 03/03 A2948 RMK AO2 P0002 T00310025
Loading
Personal Weather Stations






























Interactive Weather Map New forecast layout! Learn more

10-Day Weather Forecast

Advertisements
Track Severe Weather on mobile